createdAt,value
2019-01-13T00:01:29.345Z,78.80
2019-01-13T00:04:32.772Z,78.80
2019-01-13T00:07:33.185Z,78.80
2019-01-13T00:10:33.630Z,78.80
2019-01-13T00:13:36.291Z,78.80
2019-01-13T00:16:36.991Z,78.80
2019-01-13T00:19:37.416Z,79.40
2019-01-13T00:22:40.607Z,78.80
2019-01-13T00:25:41.282Z,78.80
2019-01-13T00:28:41.641Z,78.80
2019-01-13T00:31:43.555Z,78.80
2019-01-13T00:34:45.521Z,78.80
2019-01-13T00:37:45.986Z,78.80
2019-01-13T00:40:46.395Z,78.70
2019-01-13T00:43:46.717Z,78.80
2019-01-13T00:46:50.213Z,78.80
2019-01-13T00:49:53.541Z,78.80
2019-01-13T00:52:54.263Z,78.80
2019-01-13T00:55:54.575Z,78.80
2019-01-13T00:58:56.694Z,78.80
2019-01-13T01:01:57.210Z,78.80
2019-01-13T01:04:57.562Z,78.80
2019-01-13T01:07:58.160Z,78.80
2019-01-13T01:10:58.524Z,78.80
2019-01-13T01:13:58.902Z,78.80
2019-01-13T01:16:59.350Z,78.80
2019-01-13T01:19:59.628Z,78.80
2019-01-13T01:23:00.183Z,78.80
2019-01-13T01:26:05.709Z,78.90
2019-01-13T01:29:06.075Z,79.60
2019-01-13T01:32:06.378Z,78.90
2019-01-13T01:35:06.952Z,78.90
2019-01-13T01:38:07.375Z,78.90
2019-01-13T01:41:07.813Z,78.80
2019-01-13T01:44:08.291Z,78.80
2019-01-13T01:47:08.593Z,78.80
2019-01-13T01:50:09.948Z,79.00
2019-01-13T01:53:10.360Z,79.00
2019-01-13T01:56:10.706Z,79.00
2019-01-13T01:59:11.218Z,79.00
2019-01-13T02:02:14.262Z,79.00
2019-01-13T02:05:14.584Z,78.90
2019-01-13T02:08:14.939Z,78.90
2019-01-13T02:11:15.222Z,79.00
2019-01-13T02:14:15.560Z,79.00
2019-01-13T02:17:15.895Z,79.00
2019-01-13T02:20:17.623Z,79.00
2019-01-13T02:23:17.958Z,78.90
2019-01-13T02:26:19.174Z,79.00
2019-01-13T02:29:19.703Z,79.00
2019-01-13T02:32:20.065Z,79.00
2019-01-13T02:35:20.493Z,79.00
2019-01-13T02:38:22.891Z,79.00
2019-01-13T02:41:23.199Z,79.00
2019-01-13T02:44:25.279Z,79.00
2019-01-13T02:47:25.540Z,79.00
2019-01-13T02:50:25.901Z,79.00
2019-01-13T02:53:26.357Z,79.10
2019-01-13T02:56:26.696Z,79.10
2019-01-13T02:59:26.934Z,79.00
2019-01-13T03:02:33.008Z,79.10
2019-01-13T03:05:35.254Z,79.00
2019-01-13T03:08:35.694Z,79.10
2019-01-13T03:11:36.227Z,79.10
2019-01-13T03:14:36.558Z,79.10
2019-01-13T03:17:36.999Z,79.10
2019-01-13T03:20:37.387Z,79.10
2019-01-13T03:23:39.184Z,79.10
2019-01-13T03:26:39.494Z,80.00
2019-01-13T03:29:39.935Z,79.10
2019-01-13T03:32:40.301Z,79.10
2019-01-13T03:35:40.695Z,79.10
2019-01-13T03:38:41.126Z,79.10
2019-01-13T03:41:41.473Z,79.60
2019-01-13T03:44:41.823Z,79.10
2019-01-13T03:47:42.493Z,79.20
2019-01-13T03:50:42.843Z,79.10
2019-01-13T03:53:43.139Z,79.20
2019-01-13T03:56:43.603Z,79.10
2019-01-13T03:59:44.205Z,79.10
2019-01-13T04:02:44.568Z,79.10
2019-01-13T04:05:46.205Z,79.10
2019-01-13T04:08:46.769Z,79.10
2019-01-13T04:11:47.089Z,79.10
2019-01-13T04:14:47.426Z,79.10
2019-01-13T04:17:47.749Z,79.10
2019-01-13T04:20:48.132Z,79.10
2019-01-13T04:23:48.554Z,79.10
2019-01-13T04:26:48.975Z,79.20
2019-01-13T04:29:49.383Z,79.20
2019-01-13T04:32:49.854Z,79.20
2019-01-13T04:35:50.222Z,79.20
2019-01-13T04:38:50.695Z,79.20
2019-01-13T04:41:51.096Z,79.20
2019-01-13T04:44:52.516Z,79.20
2019-01-13T04:47:52.922Z,79.20
2019-01-13T04:50:53.439Z,79.30
2019-01-13T04:53:53.835Z,79.10
2019-01-13T04:56:55.460Z,79.10
2019-01-13T04:59:55.751Z,79.10
2019-01-13T05:02:56.156Z,79.10
2019-01-13T05:05:56.558Z,79.10
2019-01-13T05:08:59.236Z,79.10
2019-01-13T05:11:59.601Z,79.10
2019-01-13T05:14:59.880Z,79.10
2019-01-13T05:18:00.532Z,79.10
2019-01-13T05:21:00.831Z,79.10
2019-01-13T05:24:01.223Z,79.20
2019-01-13T05:27:01.585Z,79.10
2019-01-13T05:30:01.892Z,79.20
2019-01-13T05:33:02.405Z,79.10
2019-01-13T05:36:02.881Z,79.10
2019-01-13T05:39:03.571Z,79.20
2019-01-13T05:42:06.374Z,79.10
2019-01-13T05:45:10.279Z,79.10
2019-01-13T05:48:11.218Z,79.10
2019-01-13T05:51:11.925Z,79.20
2019-01-13T05:54:12.730Z,79.10
2019-01-13T05:57:13.374Z,79.10
2019-01-13T06:00:19.683Z,79.10
2019-01-13T06:03:20.187Z,79.10
2019-01-13T06:06:20.874Z,79.10
2019-01-13T06:09:21.245Z,79.10
2019-01-13T06:12:21.639Z,79.10
2019-01-13T06:15:24.275Z,79.10
2019-01-13T06:18:24.635Z,79.10
2019-01-13T06:21:24.962Z,79.80
2019-01-13T06:24:25.313Z,79.10
2019-01-13T06:27:25.682Z,79.20
2019-01-13T06:30:26.184Z,79.20
2019-01-13T06:33:26.594Z,79.20
2019-01-13T06:36:27.121Z,79.20
2019-01-13T06:39:27.469Z,79.20
2019-01-13T06:42:29.810Z,79.10
2019-01-13T06:45:35.214Z,79.20
2019-01-13T06:48:37.049Z,79.20
2019-01-13T06:51:37.305Z,79.20
2019-01-13T06:54:37.632Z,79.20
2019-01-13T06:57:37.887Z,79.20
2019-01-13T07:00:38.339Z,79.20
2019-01-13T07:03:38.671Z,79.20
2019-01-13T07:06:39.205Z,79.20
2019-01-13T07:09:39.614Z,79.20
2019-01-13T07:12:39.990Z,79.20
2019-01-13T07:15:40.568Z,79.20
2019-01-13T07:18:41.115Z,79.20
2019-01-13T07:21:42.864Z,79.10
2019-01-13T07:24:43.129Z,79.30
2019-01-13T07:27:43.416Z,79.10
2019-01-13T07:30:43.704Z,79.20
2019-01-13T07:33:45.890Z,79.10
2019-01-13T07:36:46.419Z,79.20
2019-01-13T07:39:46.801Z,79.30
2019-01-13T07:42:47.415Z,79.20
2019-01-13T07:45:48.880Z,79.20
2019-01-13T07:48:49.369Z,79.10
2019-01-13T07:51:52.467Z,79.10
2019-01-13T07:54:52.801Z,79.10
2019-01-13T07:57:53.473Z,79.10
2019-01-13T08:00:53.755Z,79.10
2019-01-13T08:03:54.218Z,79.20
2019-01-13T08:06:54.567Z,79.00
2019-01-13T08:09:54.999Z,79.40
2019-01-13T08:12:55.629Z,79.10
2019-01-13T08:15:55.969Z,79.10
2019-01-13T08:18:57.350Z,79.00
2019-01-13T08:21:57.834Z,79.00
2019-01-13T08:24:58.203Z,79.00
2019-01-13T08:27:58.705Z,79.00
2019-01-13T08:30:59.370Z,79.00
2019-01-13T08:33:59.727Z,79.00
2019-01-13T08:37:00.015Z,79.10
2019-01-13T08:40:00.380Z,79.00
2019-01-13T08:43:01.815Z,79.00
2019-01-13T08:46:02.317Z,78.90
2019-01-13T08:49:02.726Z,78.90
2019-01-13T08:52:04.924Z,78.90
2019-01-13T08:55:05.951Z,78.80
2019-01-13T08:58:06.232Z,78.90
2019-01-13T09:01:06.602Z,78.90
2019-01-13T09:04:07.035Z,78.80
2019-01-13T09:07:07.456Z,78.70
2019-01-13T09:10:09.759Z,78.70
2019-01-13T09:13:10.151Z,78.70
2019-01-13T09:16:10.483Z,78.70
2019-01-13T09:19:10.836Z,78.70
2019-01-13T09:22:11.331Z,78.30
2019-01-13T09:25:11.773Z,78.70
2019-01-13T09:28:12.215Z,78.70
2019-01-13T09:31:12.650Z,78.80
2019-01-13T09:34:16.051Z,78.80
2019-01-13T09:37:16.447Z,78.70
2019-01-13T09:40:19.500Z,78.70
2019-01-13T09:43:20.258Z,78.80
2019-01-13T09:46:20.585Z,78.70
2019-01-13T09:49:21.039Z,78.70
2019-01-13T09:52:21.469Z,78.70
2019-01-13T09:55:23.306Z,78.60
2019-01-13T09:58:23.806Z,78.60
2019-01-13T10:01:24.192Z,78.60
2019-01-13T10:04:24.499Z,78.70
2019-01-13T10:07:24.827Z,78.70
2019-01-13T10:10:25.193Z,78.70
2019-01-13T10:13:25.613Z,78.70
2019-01-13T10:16:26.373Z,78.60
2019-01-13T10:19:26.777Z,78.60
2019-01-13T10:22:27.124Z,78.70
2019-01-13T10:25:27.702Z,78.60
2019-01-13T10:28:31.458Z,78.60
2019-01-13T10:31:32.165Z,78.70
2019-01-13T10:34:32.686Z,78.70
2019-01-13T10:37:40.108Z,78.70
2019-01-13T10:40:40.559Z,78.80
2019-01-13T10:43:40.939Z,78.70
2019-01-13T10:46:43.396Z,78.80
2019-01-13T10:49:43.857Z,78.70
2019-01-13T10:52:44.220Z,79.40
2019-01-13T10:55:44.946Z,78.80
2019-01-13T10:58:45.529Z,78.80
2019-01-13T11:01:46.063Z,78.80
2019-01-13T11:04:46.562Z,78.80
2019-01-13T11:07:47.360Z,78.80
2019-01-13T11:10:49.132Z,78.80
2019-01-13T11:13:49.702Z,78.80
2019-01-13T11:16:50.332Z,78.80
2019-01-13T11:19:50.693Z,78.90
2019-01-13T11:22:51.207Z,78.80
2019-01-13T11:25:51.572Z,78.80
2019-01-13T11:28:52.155Z,78.80
2019-01-13T11:31:52.471Z,78.90
2019-01-13T11:34:52.822Z,78.80
2019-01-13T11:37:53.202Z,78.80
2019-01-13T11:40:55.985Z,78.90
2019-01-13T11:43:56.392Z,78.80
2019-01-13T11:46:56.834Z,78.80
2019-01-13T11:50:03.097Z,78.80
2019-01-13T11:53:06.542Z,78.80
2019-01-13T11:56:07.464Z,78.80
2019-01-13T11:59:10.931Z,78.80
2019-01-13T12:02:13.092Z,78.90
2019-01-13T12:05:13.860Z,78.80
2019-01-13T12:08:14.406Z,79.10
2019-01-13T12:11:14.829Z,79.00
2019-01-13T12:14:15.322Z,79.00
2019-01-13T12:17:15.772Z,79.00
2019-01-13T12:20:18.199Z,78.90
2019-01-13T12:23:20.048Z,78.90
2019-01-13T12:26:20.571Z,79.00
2019-01-13T12:29:24.257Z,78.90
2019-01-13T12:32:25.667Z,78.90
2019-01-13T12:35:26.076Z,79.00
2019-01-13T12:38:26.431Z,79.00
2019-01-13T12:41:27.002Z,79.00
2019-01-13T12:44:27.482Z,79.00
2019-01-13T12:47:27.862Z,79.10
2019-01-13T12:50:31.685Z,79.10
2019-01-13T12:53:32.246Z,79.20
2019-01-13T12:56:32.752Z,79.30
2019-01-13T12:59:34.267Z,79.20
2019-01-13T13:02:34.734Z,79.30
2019-01-13T13:05:35.192Z,79.20
2019-01-13T13:08:35.641Z,79.30
2019-01-13T13:11:35.978Z,79.20
2019-01-13T13:14:36.503Z,79.20
2019-01-13T13:17:37.024Z,79.20
2019-01-13T13:20:38.744Z,79.30
2019-01-13T13:23:39.563Z,79.20
2019-01-13T13:26:40.018Z,79.20
2019-01-13T13:29:41.658Z,79.20
2019-01-13T13:32:43.856Z,79.30
2019-01-13T13:35:46.008Z,79.10
2019-01-13T13:38:46.684Z,79.30
2019-01-13T13:41:49.738Z,79.20
2019-01-13T13:44:50.503Z,79.20
2019-01-13T13:47:51.064Z,79.20
2019-01-13T13:50:51.397Z,79.90
2019-01-13T13:53:51.723Z,79.20
2019-01-13T13:56:52.185Z,79.20
2019-01-13T13:59:52.896Z,79.20
2019-01-13T14:02:54.787Z,79.30
2019-01-13T14:05:55.444Z,79.20
2019-01-13T14:08:55.896Z,79.30
2019-01-13T14:11:56.399Z,79.30
2019-01-13T14:14:58.977Z,79.30
2019-01-13T14:17:59.482Z,79.30
2019-01-13T14:21:02.612Z,79.30
2019-01-13T14:24:03.128Z,79.30
2019-01-13T14:27:04.739Z,79.40
2019-01-13T14:30:10.382Z,79.30
2019-01-13T14:33:11.003Z,79.40
2019-01-13T14:36:12.460Z,79.40
2019-01-13T14:39:13.109Z,79.50
2019-01-13T14:42:15.272Z,79.50
2019-01-13T14:45:17.714Z,79.50
2019-01-13T14:48:18.046Z,79.50
2019-01-13T14:51:20.462Z,79.50
2019-01-13T14:54:21.007Z,79.60
2019-01-13T14:57:21.388Z,79.50
2019-01-13T15:00:29.751Z,79.60
2019-01-13T15:03:31.271Z,79.60
2019-01-13T15:06:32.145Z,79.60
2019-01-13T15:09:32.725Z,79.70
2019-01-13T15:12:33.400Z,79.80
2019-01-13T15:15:33.821Z,79.80
2019-01-13T15:18:34.249Z,79.70
2019-01-13T15:21:34.704Z,79.80
2019-01-13T15:24:35.094Z,79.90
2019-01-13T15:27:36.089Z,79.90
2019-01-13T15:30:38.021Z,79.90
2019-01-13T15:33:39.982Z,80.00
2019-01-13T15:36:40.838Z,79.90
2019-01-13T15:39:41.250Z,79.80
2019-01-13T15:42:41.657Z,80.10
2019-01-13T15:45:42.123Z,80.00
2019-01-13T15:48:42.670Z,79.80
2019-01-13T15:51:48.810Z,80.00
2019-01-13T15:54:49.249Z,79.90
2019-01-13T15:57:51.712Z,80.80
2019-01-13T16:00:52.468Z,80.10
2019-01-13T16:03:53.181Z,80.10
2019-01-13T16:06:53.680Z,80.20
2019-01-13T16:09:54.035Z,80.10
2019-01-13T16:12:54.487Z,80.20
2019-01-13T16:15:55.119Z,80.80
2019-01-13T16:18:55.623Z,80.20
2019-01-13T16:21:56.136Z,80.10
2019-01-13T16:24:56.606Z,80.20
2019-01-13T16:28:00.198Z,80.20
2019-01-13T16:31:03.134Z,80.20
2019-01-13T16:34:03.597Z,80.20
2019-01-13T16:37:07.979Z,80.20
2019-01-13T16:40:11.946Z,80.10
2019-01-13T16:43:12.391Z,80.10
2019-01-13T16:46:12.868Z,80.20
2019-01-13T16:49:13.304Z,80.20
2019-01-13T16:52:13.808Z,80.10
2019-01-13T16:55:17.651Z,80.20
2019-01-13T16:58:18.585Z,80.30
2019-01-13T17:01:19.085Z,79.70
2019-01-13T17:04:19.545Z,80.30
2019-01-13T17:07:23.108Z,80.30
2019-01-13T17:10:25.861Z,80.30
2019-01-13T17:13:27.723Z,80.20
2019-01-13T17:16:28.252Z,80.30
2019-01-13T17:19:28.669Z,80.10
2019-01-13T17:22:29.121Z,80.10
2019-01-13T17:25:30.238Z,80.40
2019-01-13T17:28:30.700Z,80.30
2019-01-13T17:31:32.733Z,80.30
2019-01-13T17:34:36.426Z,80.30
2019-01-13T17:37:36.938Z,80.60
2019-01-13T17:40:37.413Z,80.50
2019-01-13T17:43:39.511Z,80.40
2019-01-13T17:46:40.889Z,80.40
2019-01-13T17:49:42.580Z,80.40
2019-01-13T17:52:43.072Z,80.50
2019-01-13T17:55:43.446Z,80.40
2019-01-13T17:58:45.103Z,80.40
2019-01-13T18:01:52.694Z,80.40
2019-01-13T18:04:53.335Z,80.40
2019-01-13T18:07:53.756Z,80.40
2019-01-13T18:10:57.354Z,80.40
2019-01-13T18:13:58.889Z,80.40
2019-01-13T18:17:06.225Z,80.50
2019-01-13T18:20:02.006Z,80.50
2019-01-13T18:23:02.945Z,80.50
2019-01-13T18:26:03.392Z,80.50
2019-01-13T18:29:03.907Z,80.50
2019-01-13T18:32:04.713Z,80.50
2019-01-13T18:35:12.557Z,80.50
2019-01-13T18:38:12.996Z,80.60
2019-01-13T18:41:16.551Z,80.50
2019-01-13T18:44:21.153Z,80.50
2019-01-13T18:47:23.117Z,80.60
2019-01-13T18:50:32.507Z,80.70
2019-01-13T18:53:34.300Z,80.60
2019-01-13T18:56:40.644Z,81.00
2019-01-13T18:59:43.178Z,80.70
2019-01-13T19:02:43.737Z,80.80
2019-01-13T19:05:45.712Z,80.80
2019-01-13T19:08:46.341Z,80.80
2019-01-13T19:11:53.329Z,80.80
2019-01-13T19:14:57.102Z,80.80
2019-01-13T19:17:58.751Z,80.80
2019-01-13T19:21:04.924Z,80.80
2019-01-13T19:24:06.137Z,80.90
2019-01-13T19:27:06.782Z,80.80
2019-01-13T19:30:10.492Z,80.80
2019-01-13T19:33:11.419Z,80.70
2019-01-13T19:36:11.912Z,81.00
2019-01-13T19:39:13.527Z,80.80
2019-01-13T19:42:14.190Z,80.90
2019-01-13T19:45:16.820Z,80.90
2019-01-13T19:48:17.528Z,81.10
2019-01-13T19:51:18.128Z,81.00
2019-01-13T19:54:18.692Z,81.00
2019-01-13T19:57:19.302Z,81.00
2019-01-13T20:00:25.604Z,81.10
2019-01-13T20:03:26.191Z,81.00
2019-01-13T20:06:26.819Z,81.10
2019-01-13T20:09:27.443Z,81.10
2019-01-13T20:12:28.074Z,81.10
2019-01-13T20:15:29.055Z,81.00
2019-01-13T20:18:29.520Z,81.10
2019-01-13T20:21:33.023Z,81.10
2019-01-13T20:24:33.582Z,81.20
2019-01-13T20:27:34.015Z,81.10
2019-01-13T20:30:37.806Z,81.00
2019-01-13T20:33:38.356Z,81.00
2019-01-13T20:36:38.973Z,81.00
2019-01-13T20:39:40.842Z,81.10
2019-01-13T20:42:43.506Z,81.10
2019-01-13T20:45:44.312Z,81.00
2019-01-13T20:48:45.656Z,81.10
2019-01-13T20:51:46.168Z,81.20
2019-01-13T20:54:46.564Z,81.20
2019-01-13T20:57:46.938Z,81.20
2019-01-13T21:00:47.487Z,81.20
2019-01-13T21:03:47.938Z,81.20
2019-01-13T21:06:48.436Z,81.30
2019-01-13T21:09:48.914Z,81.20
2019-01-13T21:12:49.893Z,81.20
2019-01-13T21:15:50.792Z,81.90
2019-01-13T21:18:52.310Z,81.20
2019-01-13T21:21:52.714Z,81.30
2019-01-13T21:24:53.130Z,81.20
2019-01-13T21:27:55.397Z,81.30
2019-01-13T21:30:55.803Z,81.30
2019-01-13T21:33:58.702Z,81.40
2019-01-13T21:36:59.421Z,81.30
2019-01-13T21:39:59.893Z,81.50
2019-01-13T21:43:00.368Z,81.20
2019-01-13T21:46:04.214Z,81.30
2019-01-13T21:49:04.782Z,81.10
2019-01-13T21:52:05.303Z,81.20
2019-01-13T21:55:06.822Z,81.30
2019-01-13T21:58:07.134Z,81.20
2019-01-13T22:01:09.540Z,81.40
2019-01-13T22:04:14.559Z,81.40
2019-01-13T22:07:15.190Z,81.50
2019-01-13T22:10:18.598Z,81.50
2019-01-13T22:13:19.314Z,81.50
2019-01-13T22:16:19.719Z,81.50
2019-01-13T22:19:20.264Z,81.60
2019-01-13T22:22:21.645Z,81.60
2019-01-13T22:25:22.151Z,81.50
2019-01-13T22:28:22.604Z,81.50
2019-01-13T22:31:25.532Z,81.40
2019-01-13T22:34:25.950Z,81.50
2019-01-13T22:37:26.378Z,81.50
2019-01-13T22:40:26.771Z,81.50
2019-01-13T22:43:27.289Z,81.50
2019-01-13T22:46:28.075Z,81.50
2019-01-13T22:49:31.203Z,81.60
2019-01-13T22:52:31.626Z,81.60
2019-01-13T22:55:32.003Z,81.50
2019-01-13T22:58:32.526Z,81.50
2019-01-13T23:01:40.735Z,81.40
2019-01-13T23:04:42.490Z,81.50
2019-01-13T23:07:42.954Z,81.50
2019-01-13T23:10:43.318Z,81.60
2019-01-13T23:13:44.103Z,81.60
2019-01-13T23:16:47.734Z,81.70
2019-01-13T23:19:48.194Z,81.60
2019-01-13T23:22:48.590Z,81.60
2019-01-13T23:25:48.963Z,81.80
2019-01-13T23:28:49.573Z,81.80
2019-01-13T23:31:49.871Z,81.80
2019-01-13T23:34:50.243Z,81.70
2019-01-13T23:37:50.645Z,81.70
2019-01-13T23:40:51.008Z,81.70
2019-01-13T23:43:51.492Z,81.80
2019-01-13T23:46:52.978Z,81.70
2019-01-13T23:49:53.403Z,81.70
2019-01-13T23:52:53.966Z,81.60
2019-01-13T23:55:54.291Z,81.60
2019-01-13T23:58:54.583Z,81.50
